Time;durP1;ratioP1;P1;durP2;ratioP2;P2;SDS_P1;SDS_P2;PMS_P1;PMS_P2;Temp;Humidity;BMP_temperature;BMP_pressure;BME280_temperature;BME280_humidity;BME280_pressure;Samples;Min_cycle;Max_cycle;Signal;HPM_P1;HPM_P2
2022/06/15 00:01:26;;;;;;;14.93;10.80;;;15.10;77.00;;;;;;5089102;28;20080;-75
2022/06/15 00:03:52;;;;;;;17.17;11.65;;;15.10;77.10;;;;;;5105792;28;20219;-76
2022/06/15 00:06:29;;;;;;;16.90;11.80;;;15.10;77.10;;;;;;5110595;28;20088;-76
2022/06/15 00:08:57;;;;;;;19.05;11.75;;;15.10;77.20;;;;;;5105609;27;20024;-76
2022/06/15 00:11:27;;;;;;;14.85;10.93;;;15.10;77.50;;;;;;5111926;28;20078;-76
2022/06/15 00:13:53;;;;;;;14.75;11.32;;;15.00;77.60;;;;;;5113587;28;20024;-76
2022/06/15 00:16:20;;;;;;;15.43;11.55;;;15.00;77.40;;;;;;5109320;28;20032;-76
2022/06/15 00:18:46;;;;;;;13.98;11.13;;;15.00;77.50;;;;;;5111232;27;20066;-76
2022/06/15 00:21:14;;;;;;;14.52;12.15;;;15.00;77.40;;;;;;5108282;28;20024;-76
2022/06/15 00:23:40;;;;;;;18.05;12.18;;;15.00;77.60;;;;;;5111429;28;20092;-76
2022/06/15 00:26:06;;;;;;;14.77;11.43;;;15.00;77.60;;;;;;5108601;28;20017;-77
2022/06/15 00:28:33;;;;;;;19.30;11.70;;;14.90;77.80;;;;;;5093693;28;20024;-76
2022/06/15 00:30:59;;;;;;;18.23;12.82;;;14.90;78.00;;;;;;5111739;28;20055;-76
2022/06/15 00:33:26;;;;;;;14.05;10.68;;;14.90;78.00;;;;;;5109889;28;20016;-75
2022/06/15 00:35:57;;;;;;;15.55;12.20;;;14.90;78.10;;;;;;5107827;28;20032;-76
2022/06/15 00:38:35;;;;;;;15.02;12.00;;;14.80;78.20;;;;;;5110201;28;20016;-76
2022/06/15 00:41:04;;;;;;;17.63;13.38;;;14.80;78.30;;;;;;5093430;28;20246;-76
2022/06/15 00:43:40;;;;;;;16.15;12.65;;;14.70;78.30;;;;;;5087516;28;20036;-75
2022/06/15 00:46:28;;;;;;;17.38;13.32;;;14.60;78.70;;;;;;5109973;28;20040;-76
2022/06/15 00:49:02;;;;;;;20.27;14.93;;;14.50;79.40;;;;;;5107993;28;20050;-76
2022/06/15 00:51:29;;;;;;;18.42;13.65;;;14.40;80.00;;;;;;5103351;28;20024;-76
2022/06/15 00:53:56;;;;;;;18.83;14.18;;;14.30;80.40;;;;;;5105512;28;20025;-76
2022/06/15 00:56:24;;;;;;;16.63;13.63;;;14.20;80.80;;;;;;5107444;28;20059;-76
2022/06/15 00:58:52;;;;;;;17.70;14.77;;;14.10;81.20;;;;;;5103219;28;20099;-76
2022/06/15 01:01:18;;;;;;;19.88;15.48;;;14.10;81.20;;;;;;5108726;28;20437;-76
2022/06/15 01:03:49;;;;;;;16.45;13.80;;;14.10;81.20;;;;;;5093165;28;20032;-75
2022/06/15 01:06:46;;;;;;;21.02;15.98;;;14.00;81.60;;;;;;5108475;28;20204;-76
2022/06/15 01:09:24;;;;;;;19.10;14.93;;;13.90;81.90;;;;;;5108546;27;20034;-76
2022/06/15 01:11:57;;;;;;;17.20;14.23;;;13.90;81.90;;;;;;5111073;28;20093;-76
2022/06/15 01:14:35;;;;;;;16.55;14.68;;;14.00;82.00;;;;;;5108151;28;20052;-76
2022/06/15 01:17:22;;;;;;;19.98;14.23;;;14.00;81.90;;;;;;5106159;28;20034;-77
2022/06/15 01:20:28;;;;;;;19.98;14.00;;;14.00;81.70;;;;;;5113980;28;20044;-76
2022/06/15 01:23:29;;;;;;;20.48;14.23;;;14.10;81.50;;;;;;5085062;28;20024;-76
2022/06/15 01:26:34;;;;;;;20.73;13.98;;;14.10;81.20;;;;;;5089053;28;20058;-76
2022/06/15 01:29:34;;;;;;;17.45;13.23;;;14.10;81.00;;;;;;5069693;28;20016;-76
2022/06/15 01:32:23;;;;;;;19.95;14.05;;;14.00;80.90;;;;;;5107089;28;20032;-77
2022/06/15 01:34:51;;;;;;;21.17;15.40;;;14.00;80.90;;;;;;5103141;28;20036;-76
2022/06/15 01:37:41;;;;;;;22.20;15.20;;;13.90;80.90;;;;;;5106345;28;20031;-76
2022/06/15 01:40:29;;;;;;;21.25;15.50;;;13.80;81.30;;;;;;5106539;27;20034;-76
2022/06/15 01:43:05;;;;;;;19.55;15.23;;;13.80;81.60;;;;;;5093549;28;20024;-76
2022/06/15 01:45:34;;;;;;;17.55;14.48;;;13.70;81.80;;;;;;5108440;28;20023;-75
2022/06/15 01:48:03;;;;;;;22.00;16.65;;;13.70;81.90;;;;;;5107098;28;20028;-76
2022/06/15 01:50:39;;;;;;;18.42;16.38;;;13.60;82.00;;;;;;5109215;28;20012;-76
2022/06/15 01:53:17;;;;;;;20.20;16.15;;;13.60;82.10;;;;;;5107521;28;20050;-77
2022/06/15 01:56:14;;;;;;;19.75;15.70;;;13.60;82.30;;;;;;5105526;28;20084;-76
2022/06/15 01:58:45;;;;;;;23.92;16.05;;;13.60;82.40;;;;;;5106790;27;20080;-76
2022/06/15 02:01:25;;;;;;;19.45;16.30;;;13.60;82.50;;;;;;5102875;28;20017;-77
2022/06/15 02:04:00;;;;;;;18.80;15.85;;;13.60;82.40;;;;;;5107664;27;20058;-77
2022/06/15 02:07:03;;;;;;;17.08;14.52;;;13.60;82.30;;;;;;5104648;28;20025;-76
2022/06/15 02:09:33;;;;;;;17.35;14.38;;;13.60;82.00;;;;;;5106981;28;20028;-76
2022/06/15 02:12:02;;;;;;;19.35;15.60;;;13.60;81.80;;;;;;5105670;27;20112;-76
2022/06/15 02:14:43;;;;;;;20.63;16.17;;;13.60;81.60;;;;;;5106895;28;20046;-76
2022/06/15 02:17:18;;;;;;;20.08;15.20;;;13.60;81.50;;;;;;5105490;28;20032;-77
2022/06/15 02:19:51;;;;;;;19.08;15.45;;;13.60;81.70;;;;;;5086206;28;20232;-76
2022/06/15 02:22:26;;;;;;;18.50;15.23;;;13.60;81.70;;;;;;5104538;28;20277;-76
2022/06/15 02:24:54;;;;;;;18.80;14.45;;;13.60;81.70;;;;;;5107343;28;20047;-76
2022/06/15 02:27:22;;;;;;;18.20;15.23;;;13.60;81.70;;;;;;5101444;28;20028;-76
2022/06/15 02:29:52;;;;;;;19.38;15.95;;;13.60;81.60;;;;;;5108685;28;20028;-76
2022/06/15 02:32:18;;;;;;;21.45;14.32;;;13.60;81.50;;;;;;5108022;28;20091;-76
2022/06/15 02:34:44;;;;;;;18.58;14.88;;;13.60;81.40;;;;;;5109505;28;20021;-76
2022/06/15 02:37:11;;;;;;;18.85;15.80;;;13.60;81.30;;;;;;5105891;28;20032;-76
2022/06/15 02:39:37;;;;;;;25.13;17.75;;;13.50;81.20;;;;;;5108213;28;20020;-76
2022/06/15 02:42:40;;;;;;;20.77;16.77;;;13.50;81.20;;;;;;5105661;28;20039;-77
2022/06/15 02:45:12;;;;;;;19.25;15.77;;;13.40;81.30;;;;;;5101212;28;20036;-77
2022/06/15 02:47:41;;;;;;;18.85;16.35;;;13.40;81.50;;;;;;5105861;28;20034;-76
2022/06/15 02:50:08;;;;;;;17.83;15.73;;;13.40;81.50;;;;;;5103215;28;20082;-76
2022/06/15 02:52:42;;;;;;;18.52;15.57;;;13.30;81.40;;;;;;5107260;28;20036;-76
2022/06/15 02:55:10;;;;;;;18.17;14.98;;;13.30;81.60;;;;;;5106264;28;20074;-77
2022/06/15 02:57:48;;;;;;;20.77;15.80;;;13.30;81.50;;;;;;5104169;28;20031;-76
2022/06/15 03:00:16;;;;;;;21.23;16.65;;;13.30;81.50;;;;;;5106046;28;20066;-77
2022/06/15 03:02:42;;;;;;;17.67;14.98;;;13.20;81.50;;;;;;5105953;28;20028;-76
2022/06/15 03:05:08;;;;;;;19.33;16.05;;;13.20;81.70;;;;;;5103820;27;20039;-77
2022/06/15 03:07:34;;;;;;;18.52;16.45;;;13.10;81.70;;;;;;5108342;28;20025;-76
2022/06/15 03:09:59;;;;;;;18.98;16.52;;;13.10;81.80;;;;;;5108705;27;20036;-76
2022/06/15 03:12:25;;;;;;;20.73;17.00;;;13.10;81.90;;;;;;5108322;28;20028;-76
2022/06/15 03:14:51;;;;;;;20.08;16.02;;;13.10;81.80;;;;;;5108857;27;20020;-76
2022/06/15 03:17:16;;;;;;;19.90;17.20;;;13.10;81.90;;;;;;5106912;28;20025;-77
2022/06/15 03:19:43;;;;;;;25.33;18.00;;;13.10;81.90;;;;;;5092486;28;20043;-76
2022/06/15 03:22:09;;;;;;;22.40;17.90;;;13.10;81.90;;;;;;5098458;28;20448;-76
2022/06/15 03:24:34;;;;;;;21.05;17.67;;;13.10;82.10;;;;;;5107323;28;20031;-76
2022/06/15 03:27:00;;;;;;;20.90;17.25;;;13.00;82.30;;;;;;5108692;28;20121;-76
2022/06/15 03:29:26;;;;;;;20.13;17.90;;;13.00;82.60;;;;;;5105792;28;20040;-76
2022/06/15 03:31:51;;;;;;;25.38;20.90;;;13.00;82.70;;;;;;5103364;28;20051;-76
2022/06/15 03:34:17;;;;;;;25.10;19.40;;;13.00;82.80;;;;;;5108234;28;20036;-76
2022/06/15 03:36:42;;;;;;;22.05;18.38;;;12.90;82.90;;;;;;5086860;28;20024;-76
2022/06/15 03:39:08;;;;;;;19.48;17.35;;;12.90;82.90;;;;;;5106652;28;20054;-76
2022/06/15 03:41:34;;;;;;;22.98;18.08;;;12.90;83.00;;;;;;5105801;28;20016;-77
2022/06/15 03:43:59;;;;;;;22.50;18.55;;;12.90;82.90;;;;;;5108118;28;20035;-76
2022/06/15 03:46:25;;;;;;;24.92;20.60;;;12.90;83.00;;;;;;5108971;28;20121;-76
2022/06/15 03:48:51;;;;;;;22.67;19.10;;;12.90;82.80;;;;;;5108845;28;20024;-76
2022/06/15 03:51:16;;;;;;;23.98;20.88;;;12.80;83.10;;;;;;5107557;28;20016;-76
2022/06/15 03:53:42;;;;;;;28.17;20.27;;;12.70;83.60;;;;;;5110441;28;20032;-76
2022/06/15 03:56:08;;;;;;;22.88;19.95;;;12.70;84.00;;;;;;5108468;28;20024;-76
2022/06/15 03:58:34;;;;;;;23.02;20.42;;;12.70;84.10;;;;;;5110069;28;20027;-76
2022/06/15 04:00:59;;;;;;;25.05;19.20;;;12.80;84.00;;;;;;5110960;28;20016;-76
2022/06/15 04:03:25;;;;;;;25.90;21.40;;;12.80;83.80;;;;;;5107958;28;20050;-76
2022/06/15 04:05:56;;;;;;;23.35;20.00;;;12.80;83.60;;;;;;5112552;28;20035;-76
2022/06/15 04:08:42;;;;;;;23.35;20.42;;;12.70;84.00;;;;;;5110202;28;20032;-76
2022/06/15 04:14:04;;;;;;;22.00;19.08;;;12.70;84.30;;;;;;5067968;28;20034;-77
2022/06/15 04:16:30;;;;;;;20.65;18.40;;;12.80;84.10;;;;;;5109822;28;20042;-76
2022/06/15 04:19:02;;;;;;;20.35;18.25;;;13.00;83.80;;;;;;5107599;28;20034;-76
2022/06/15 04:21:28;;;;;;;19.25;17.15;;;13.10;83.50;;;;;;5109293;28;20024;-76
2022/06/15 04:23:53;;;;;;;22.90;17.00;;;13.10;83.10;;;;;;5109667;28;20047;-76
2022/06/15 04:26:19;;;;;;;21.80;17.77;;;13.20;82.70;;;;;;5089264;28;20043;-76
2022/06/15 04:28:45;;;;;;;22.38;17.77;;;13.30;82.40;;;;;;5110643;28;20056;-76
2022/06/15 04:31:11;;;;;;;21.63;18.58;;;13.30;81.60;;;;;;5110874;28;20041;-76
2022/06/15 04:33:36;;;;;;;21.73;17.25;;;13.20;81.80;;;;;;5109195;28;20047;-76
2022/06/15 04:36:02;;;;;;;20.33;16.58;;;13.30;81.90;;;;;;5107084;28;20016;-76
2022/06/15 04:38:28;;;;;;;19.05;16.25;;;13.30;81.40;;;;;;5110082;28;20032;-76
2022/06/15 04:40:54;;;;;;;20.73;16.08;;;13.40;81.40;;;;;;5110283;28;20016;-76
2022/06/15 04:43:20;;;;;;;20.92;15.32;;;13.50;81.10;;;;;;5109172;28;20043;-76
2022/06/15 04:45:45;;;;;;;20.65;15.52;;;13.50;80.80;;;;;;5110586;28;20019;-76
2022/06/15 04:48:11;;;;;;;18.67;15.75;;;13.50;80.40;;;;;;5109999;28;20119;-77
2022/06/15 04:50:38;;;;;;;18.77;14.30;;;13.60;80.30;;;;;;5108774;28;20048;-76
2022/06/15 04:53:05;;;;;;;18.25;14.45;;;13.60;80.30;;;;;;5107379;28;20343;-76
2022/06/15 04:55:31;;;;;;;18.38;14.80;;;13.70;79.90;;;;;;5108292;28;20072;-76
2022/06/15 04:57:59;;;;;;;23.67;15.32;;;13.80;79.50;;;;;;5106998;28;20031;-76
2022/06/15 05:00:28;;;;;;;18.33;14.02;;;13.80;79.50;;;;;;5090621;28;20119;-76
2022/06/15 05:02:54;;;;;;;15.90;13.60;;;13.90;79.40;;;;;;5106394;27;20048;-76
2022/06/15 05:05:19;;;;;;;17.52;13.88;;;14.00;79.30;;;;;;5107972;28;20016;-76
2022/06/15 05:07:46;;;;;;;18.55;12.65;;;14.50;79.50;;;;;;5106265;28;20039;-76
2022/06/15 05:10:18;;;;;;;16.17;11.43;;;15.90;75.50;;;;;;5106856;28;20049;-76
2022/06/15 05:12:45;;;;;;;12.15;8.63;;;17.80;68.00;;;;;;5109878;28;20042;-76
2022/06/15 05:15:13;;;;;;;15.35;9.95;;;19.70;63.30;;;;;;5103767;28;20027;-76
2022/06/15 05:17:40;;;;;;;11.43;8.75;;;21.20;55.50;;;;;;5107146;28;20028;-76
2022/06/15 05:20:08;;;;;;;13.48;7.82;;;22.10;53.70;;;;;;5085886;28;20020;-77
2022/06/15 05:22:33;;;;;;;13.30;8.57;;;23.30;50.20;;;;;;5105352;28;20052;-76
2022/06/15 05:24:59;;;;;;;13.30;8.57;;;24.00;48.20;;;;;;5107924;28;20023;-77
2022/06/15 05:27:24;;;;;;;13.38;8.13;;;24.30;46.20;;;;;;5103832;28;20564;-77
2022/06/15 05:29:50;;;;;;;12.18;7.55;;;24.50;46.50;;;;;;5107338;28;20042;-77
2022/06/15 05:32:16;;;;;;;13.13;8.40;;;25.20;45.30;;;;;;5104756;28;20036;-77
2022/06/15 05:34:42;;;;;;;11.70;7.38;;;25.40;44.10;;;;;;5100118;28;20024;-76
2022/06/15 05:37:07;;;;;;;14.40;7.88;;;25.60;43.40;;;;;;5107177;28;20102;-77
2022/06/15 05:39:33;;;;;;;11.70;7.10;;;25.00;43.70;;;;;;5110159;28;20287;-77
2022/06/15 05:41:59;;;;;;;12.05;7.88;;;25.10;43.70;;;;;;5117772;28;20019;-76
2022/06/15 05:44:31;;;;;;;11.38;7.70;;;25.10;43.90;;;;;;5107221;28;20027;-76
2022/06/15 05:46:59;;;;;;;11.70;7.80;;;24.50;44.90;;;;;;5106682;28;20096;-76
2022/06/15 05:49:25;;;;;;;12.18;8.30;;;24.50;45.30;;;;;;5089418;28;20101;-76
2022/06/15 05:51:51;;;;;;;14.48;7.93;;;24.10;45.90;;;;;;5090373;28;20040;-76
2022/06/15 05:54:16;;;;;;;12.43;8.68;;;23.10;47.60;;;;;;5109217;28;20016;-76
2022/06/15 05:56:42;;;;;;;13.90;9.38;;;22.10;48.90;;;;;;5106811;28;20042;-76
2022/06/15 05:59:08;;;;;;;14.40;9.30;;;20.60;53.20;;;;;;5107021;28;20129;-76
2022/06/15 06:01:35;;;;;;;13.27;9.50;;;19.60;57.10;;;;;;5109081;28;20032;-76
2022/06/15 06:04:02;;;;;;;14.82;9.10;;;18.90;58.70;;;;;;5103807;28;20039;-77
2022/06/15 06:06:29;;;;;;;13.85;9.55;;;18.40;61.00;;;;;;5107186;27;20067;-75
2022/06/15 06:08:55;;;;;;;17.92;9.75;;;18.40;61.40;;;;;;5109265;28;20028;-76
2022/06/15 06:11:21;;;;;;;15.40;9.77;;;18.30;62.40;;;;;;5107191;27;20036;-76
2022/06/15 06:13:48;;;;;;;13.45;10.25;;;18.20;62.10;;;;;;5108032;28;20035;-76
2022/06/15 06:16:14;;;;;;;16.33;9.63;;;18.10;63.20;;;;;;5106741;28;20016;-76
2022/06/15 06:18:40;;;;;;;11.88;9.52;;;18.20;63.70;;;;;;5105852;28;20028;-73
2022/06/15 06:21:06;;;;;;;15.20;9.63;;;18.40;63.00;;;;;;5088206;28;20036;-75
2022/06/15 06:23:33;;;;;;;15.90;9.57;;;18.50;63.30;;;;;;5103223;28;20016;-75
2022/06/15 06:25:59;;;;;;;15.02;10.05;;;18.60;63.30;;;;;;5104848;28;20064;-75
2022/06/15 06:28:31;;;;;;;14.77;8.85;;;18.70;62.90;;;;;;5107436;28;20038;-75
2022/06/15 06:30:58;;;;;;;15.93;8.80;;;18.90;62.50;;;;;;5089361;28;20020;-75
2022/06/15 06:33:26;;;;;;;13.57;8.48;;;19.10;61.40;;;;;;5107434;28;20047;-75
2022/06/15 06:35:53;;;;;;;14.77;9.15;;;19.30;61.00;;;;;;5106067;28;20031;-76
2022/06/15 06:38:20;;;;;;;12.93;9.02;;;19.50;60.50;;;;;;5098726;28;20337;-77
2022/06/15 06:40:46;;;;;;;13.02;9.35;;;19.60;59.30;;;;;;5106995;28;20039;-77
2022/06/15 06:43:12;;;;;;;14.35;9.02;;;19.30;60.70;;;;;;5108159;28;20028;-77
2022/06/15 06:45:37;;;;;;;12.88;8.63;;;19.40;59.20;;;;;;5107313;28;20019;-72
2022/06/15 06:48:04;;;;;;;13.60;8.73;;;19.30;60.90;;;;;;5105697;28;20088;-74
2022/06/15 06:50:29;;;;;;;14.13;9.55;;;19.50;60.50;;;;;;5107785;28;20035;-73
2022/06/15 06:52:55;;;;;;;15.35;8.75;;;19.60;60.10;;;;;;5107907;28;20035;-73
2022/06/15 06:55:22;;;;;;;16.40;9.27;;;19.80;59.80;;;;;;5107257;28;20094;-73
2022/06/15 06:57:52;;;;;;;16.98;8.80;;;20.00;59.30;;;;;;5102991;28;20116;-73
2022/06/15 07:00:18;;;;;;;15.82;8.43;;;20.10;59.50;;;;;;5081750;28;20016;-73
2022/06/15 07:02:44;;;;;;;14.43;8.15;;;20.40;58.10;;;;;;5086206;28;20067;-73
2022/06/15 07:05:10;;;;;;;15.65;8.50;;;19.80;56.70;;;;;;5105754;28;20023;-73
2022/06/15 07:07:35;;;;;;;14.95;8.93;;;19.60;58.80;;;;;;5109100;28;20088;-73
2022/06/15 07:10:01;;;;;;;14.93;8.55;;;19.80;59.10;;;;;;5105207;27;20024;-74
2022/06/15 07:12:27;;;;;;;17.08;8.05;;;19.80;59.90;;;;;;5106887;28;20027;-73
2022/06/15 07:14:52;;;;;;;17.90;8.55;;;19.80;60.00;;;;;;5107588;28;20052;-73
2022/06/15 07:17:18;;;;;;;16.50;8.05;;;19.80;58.80;;;;;;5108640;28;20046;-73
2022/06/15 07:19:44;;;;;;;17.65;8.45;;;20.10;57.90;;;;;;5109911;28;20027;-72
2022/06/15 07:22:09;;;;;;;14.55;7.90;;;20.00;56.60;;;;;;5108067;28;20539;-72
2022/06/15 07:24:35;;;;;;;14.30;7.38;;;20.00;57.40;;;;;;5111594;28;20048;-72
2022/06/15 07:27:01;;;;;;;13.07;7.32;;;20.20;55.20;;;;;;5112394;28;20104;-73
2022/06/15 07:29:26;;;;;;;13.68;6.30;;;20.20;54.20;;;;;;5109989;27;20017;-76
2022/06/15 07:31:54;;;;;;;14.35;6.65;;;20.40;55.70;;;;;;5106733;28;21487;-77
2022/06/15 07:34:21;;;;;;;12.45;6.20;;;20.70;54.50;;;;;;5094678;28;20046;-80
2022/06/15 07:36:47;;;;;;;11.95;6.07;;;20.90;52.90;;;;;;5112133;28;20016;-78
2022/06/15 07:39:16;;;;;;;13.77;6.15;;;20.70;52.90;;;;;;5110017;28;20028;-74
2022/06/15 07:41:41;;;;;;;16.13;6.28;;;21.00;52.80;;;;;;5110936;28;20036;-76
2022/06/15 07:44:07;;;;;;;13.40;5.85;;;21.30;52.90;;;;;;5109930;28;20016;-77
2022/06/15 07:46:33;;;;;;;14.00;6.07;;;21.70;52.10;;;;;;5110488;28;20016;-77
2022/06/15 07:51:54;;;;;;;11.68;5.65;;;22.30;50.70;;;;;;5106077;28;20055;-78
2022/06/15 07:54:20;;;;;;;12.75;6.32;;;22.30;50.80;;;;;;5110712;28;20016;-78
2022/06/15 07:56:46;;;;;;;15.57;6.93;;;22.60;49.90;;;;;;5112355;28;20020;-78
2022/06/15 07:59:13;;;;;;;15.15;6.03;;;22.60;49.50;;;;;;5109323;28;20062;-76
2022/06/15 08:01:40;;;;;;;14.20;5.88;;;22.60;49.40;;;;;;5111331;28;20048;-77
2022/06/15 08:04:06;;;;;;;13.50;5.28;;;22.60;48.30;;;;;;5110502;28;20083;-77
2022/06/15 08:06:34;;;;;;;14.18;5.43;;;22.50;48.70;;;;;;5112036;28;20108;-79
2022/06/15 08:09:01;;;;;;;11.48;5.40;;;22.90;49.00;;;;;;5111242;28;20107;-77
2022/06/15 08:11:26;;;;;;;12.48;4.72;;;23.20;46.40;;;;;;5108327;28;20027;-77
2022/06/15 08:13:55;;;;;;;13.52;5.00;;;23.30;47.20;;;;;;5111351;28;20024;-80
2022/06/15 08:16:21;;;;;;;11.35;5.35;;;23.30;45.50;;;;;;5109504;28;20036;-76
2022/06/15 08:18:52;;;;;;;12.88;4.70;;;23.30;45.90;;;;;;5110341;28;20028;-77
2022/06/15 08:21:29;;;;;;;12.30;4.93;;;23.30;45.90;;;;;;5110227;28;20079;-77
2022/06/15 08:23:57;;;;;;;11.02;4.90;;;22.70;46.30;;;;;;5108501;28;20041;-79
2022/06/15 08:26:27;;;;;;;12.73;5.45;;;22.90;45.90;;;;;;5109797;28;20043;-78
2022/06/15 08:28:56;;;;;;;12.20;5.18;;;23.20;45.50;;;;;;5111290;28;20036;-78
2022/06/15 08:31:21;;;;;;;13.30;5.30;;;23.30;45.40;;;;;;5110123;27;20032;-78
2022/06/15 08:33:47;;;;;;;12.23;5.10;;;23.10;46.50;;;;;;5109833;28;20027;-80
2022/06/15 08:36:14;;;;;;;12.18;4.68;;;23.40;45.10;;;;;;5109967;27;20020;-80
2022/06/15 08:38:41;;;;;;;15.05;5.05;;;23.50;44.70;;;;;;5110906;28;20016;-80
2022/06/15 08:41:37;;;;;;;12.38;5.18;;;23.80;45.10;;;;;;5109736;28;20035;-81
2022/06/15 08:44:17;;;;;;;14.20;4.82;;;24.10;44.50;;;;;;5082235;28;20036;-80
2022/06/15 08:47:04;;;;;;;10.85;4.32;;;23.70;43.90;;;;;;5110062;28;20037;-81
2022/06/15 08:50:15;;;;;;;10.13;4.22;;;23.80;43.30;;;;;;5108716;28;20033;-80
2022/06/15 08:52:45;;;;;;;11.07;4.22;;;24.20;43.30;;;;;;5040633;28;20056;-79
2022/06/15 08:55:24;;;;;;;10.32;4.60;;;24.20;42.80;;;;;;5103367;28;20055;-80
2022/06/15 08:57:54;;;;;;;11.68;4.85;;;24.50;41.30;;;;;;5107251;28;20018;-81
2022/06/15 09:00:37;;;;;;;10.18;4.43;;;24.60;40.90;;;;;;5102645;28;20012;-81
2022/06/15 09:03:39;;;;;;;10.30;4.43;;;24.70;40.80;;;;;;5109444;27;20035;-82
2022/06/15 09:06:09;;;;;;;12.32;4.80;;;24.60;41.10;;;;;;5109341;27;20028;-75
2022/06/15 09:08:56;;;;;;;11.70;4.75;;;24.80;41.20;;;;;;5107657;28;20798;-83
2022/06/15 09:11:37;;;;;;;9.43;4.80;;;24.30;41.70;;;;;;5106637;28;20075;-79
2022/06/15 09:14:23;;;;;;;9.88;5.03;;;24.50;41.20;;;;;;5108589;28;20019;-77
2022/06/15 09:17:02;;;;;;;12.82;4.40;;;24.40;40.90;;;;;;5108039;27;20035;-78
2022/06/15 09:19:33;;;;;;;12.10;4.90;;;24.60;41.20;;;;;;5104622;27;20020;-76
2022/06/15 09:22:13;;;;;;;11.75;4.72;;;25.00;41.30;;;;;;5106546;28;20017;-78
2022/06/15 09:25:19;;;;;;;10.70;4.78;;;25.00;40.20;;;;;;5107615;28;20081;-78
2022/06/15 09:27:51;;;;;;;14.68;5.30;;;25.30;40.10;;;;;;5108452;28;20202;-77
2022/06/15 09:30:29;;;;;;;10.70;4.80;;;25.30;40.80;;;;;;5107164;28;20028;-78
2022/06/15 09:33:17;;;;;;;10.50;5.60;;;24.90;41.30;;;;;;5108672;28;20273;-82
2022/06/15 09:36:00;;;;;;;13.00;4.85;;;24.90;40.50;;;;;;5090707;28;20056;-80
2022/06/15 09:38:26;;;;;;;13.68;5.43;;;25.20;41.20;;;;;;5106231;28;20034;-81
2022/06/15 09:40:57;;;;;;;10.68;5.22;;;25.60;40.70;;;;;;5109644;28;20027;-79
2022/06/15 09:43:45;;;;;;;11.82;4.60;;;25.50;40.40;;;;;;5105290;28;20048;-80
2022/06/15 09:46:48;;;;;;;12.18;5.40;;;25.80;39.90;;;;;;5105860;28;20099;-82
2022/06/15 09:49:32;;;;;;;11.68;5.15;;;25.50;38.20;;;;;;5108197;28;20036;-79
2022/06/15 09:52:43;;;;;;;12.27;4.70;;;25.10;39.50;;;;;;5108347;28;20032;-81
2022/06/15 09:55:23;;;;;;;12.15;5.30;;;25.10;39.60;;;;;;4989380;28;20072;-80
2022/06/15 09:57:50;;;;;;;9.57;4.53;;;25.00;40.30;;;;;;4995820;28;20073;-78
2022/06/15 10:00:16;;;;;;;12.10;5.72;;;25.00;40.80;;;;;;5063609;27;20031;-80
2022/06/15 10:02:46;;;;;;;10.85;5.82;;;25.00;41.40;;;;;;5106876;28;20131;-79
2022/06/15 10:05:24;;;;;;;14.63;6.07;;;24.50;40.70;;;;;;5108851;27;20051;-81
2022/06/15 10:07:51;;;;;;;12.15;6.00;;;24.80;41.20;;;;;;5102362;28;20023;-80
2022/06/15 10:10:30;;;;;;;12.55;6.65;;;24.90;40.50;;;;;;5108264;27;20121;-82
2022/06/15 10:13:02;;;;;;;12.80;5.72;;;24.50;40.80;;;;;;5109813;28;20095;-83
2022/06/15 10:15:48;;;;;;;14.32;5.88;;;24.60;42.30;;;;;;5106639;28;20032;-81
2022/06/15 10:18:20;;;;;;;15.88;6.72;;;25.30;41.50;;;;;;5102194;28;20349;-81
2022/06/15 10:21:08;;;;;;;10.70;5.60;;;25.60;40.80;;;;;;5108097;28;20019;-79
2022/06/15 10:23:53;;;;;;;11.68;5.80;;;26.20;39.80;;;;;;5107380;28;20020;-80
2022/06/15 10:26:36;;;;;;;11.63;6.13;;;26.60;40.20;;;;;;5107540;28;20035;-80
2022/06/15 10:29:22;;;;;;;13.05;6.05;;;26.50;37.60;;;;;;5108779;28;20020;-77
2022/06/15 10:31:57;;;;;;;11.98;7.10;;;26.60;37.90;;;;;;5119485;28;20047;-81
2022/06/15 10:34:29;;;;;;;13.55;6.07;;;26.40;37.60;;;;;;5090475;28;20031;-87
2022/06/15 10:37:26;;;;;;;15.35;6.43;;;26.20;39.30;;;;;;5103136;28;20012;-82
2022/06/15 10:39:55;;;;;;;11.88;7.32;;;26.60;39.10;;;;;;5104991;28;20042;-77
2022/06/15 10:42:28;;;;;;;13.13;7.63;;;26.30;37.80;;;;;;5103368;28;20051;-84
2022/06/15 10:45:00;;;;;;;14.68;6.82;;;26.00;39.10;;;;;;5087876;28;20039;-82
2022/06/15 10:47:56;;;;;;;12.38;6.20;;;26.10;40.30;;;;;;5108985;28;20047;-82
2022/06/15 10:50:29;;;;;;;14.27;7.78;;;26.30;39.10;;;;;;5108531;28;20038;-82
2022/06/15 10:53:02;;;;;;;12.02;6.80;;;26.10;39.60;;;;;;5106598;28;20055;-81
2022/06/15 11:04:21;;;;;;;16.30;6.82;;;26.30;39.40;;;;;;5108563;28;20065;-81
2022/06/15 11:07:09;;;;;;;14.77;8.27;;;26.90;39.20;;;;;;5110970;28;20027;-77
2022/06/15 11:09:59;;;;;;;12.48;6.32;;;27.00;37.40;;;;;;5110696;27;20043;-82
2022/06/15 11:12:33;;;;;;;19.13;7.85;;;27.40;38.70;;;;;;5110892;28;20059;-84
2022/06/15 11:15:12;;;;;;;14.57;7.95;;;27.60;37.20;;;;;;5093863;28;20028;-80
2022/06/15 11:18:03;;;;;;;15.95;8.80;;;27.60;37.00;;;;;;5110569;28;20024;-80
2022/06/15 11:20:43;;;;;;;14.98;8.85;;;27.20;38.70;;;;;;5108063;28;20043;-80
2022/06/15 11:23:42;;;;;;;13.95;7.50;;;26.90;38.40;;;;;;5109234;27;20054;-77
2022/06/15 11:29:31;;;;;;;13.80;8.07;;;27.10;37.90;;;;;;5109693;28;20031;-80
2022/06/15 11:32:02;;;;;;;16.73;8.02;;;27.40;36.00;;;;;;5109182;27;20081;-79
2022/06/15 11:34:33;;;;;;;16.25;9.10;;;27.50;36.00;;;;;;5108422;27;20025;-79
2022/06/15 11:37:10;;;;;;;13.82;7.95;;;27.50;35.40;;;;;;5109907;28;20059;-75
2022/06/15 11:39:55;;;;;;;12.05;6.97;;;27.50;35.40;;;;;;5111099;27;20024;-78
2022/06/15 11:42:21;;;;;;;13.73;7.75;;;27.60;36.40;;;;;;5089556;28;20036;-77
2022/06/15 11:44:47;;;;;;;16.48;9.50;;;27.20;36.70;;;;;;5109012;28;20024;-78
2022/06/15 11:47:42;;;;;;;19.45;10.32;;;26.90;38.70;;;;;;5106541;27;20048;-77
2022/06/15 11:50:33;;;;;;;15.90;9.20;;;26.80;38.30;;;;;;5109581;28;20025;-83
2022/06/15 11:53:07;;;;;;;16.45;9.55;;;27.00;37.80;;;;;;5108871;28;20040;-83
2022/06/15 11:55:38;;;;;;;16.60;8.15;;;27.00;37.40;;;;;;5109834;28;20099;-83
2022/06/15 11:58:21;;;;;;;13.23;7.57;;;27.40;39.70;;;;;;5092642;27;20500;-83
2022/06/15 12:01:09;;;;;;;15.47;6.83;;;27.50;37.30;;;;;;5106965;28;20036;-83
2022/06/15 12:03:52;;;;;;;15.88;8.52;;;27.60;37.80;;;;;;5108240;28;20563;-75
2022/06/15 12:06:41;;;;;;;11.45;7.60;;;27.50;36.70;;;;;;5105893;28;20036;-81
2022/06/15 12:09:10;;;;;;;13.43;6.55;;;27.60;36.90;;;;;;5108719;28;20047;-83
2022/06/15 12:15:05;;;;;;;13.80;8.27;;;27.70;35.00;;;;;;5109045;28;20031;-82
2022/06/15 12:17:51;;;;;;;12.32;7.15;;;27.50;34.80;;;;;;5094263;28;20027;-75
2022/06/15 12:20:39;;;;;;;16.92;7.53;;;27.90;36.20;;;;;;5115017;28;20038;-81
2022/06/15 12:23:33;;;;;;;14.68;7.53;;;28.40;35.00;;;;;;5104490;28;20300;-82
2022/06/15 12:26:13;;;;;;;12.73;7.40;;;28.00;35.40;;;;;;5109943;28;20028;-78
2022/06/15 12:28:52;;;;;;;11.70;5.90;;;28.30;35.00;;;;;;5106134;27;20039;-82
2022/06/15 12:31:30;;;;;;;14.07;6.57;;;28.40;36.50;;;;;;5107657;28;20088;-83
2022/06/15 12:34:25;;;;;;;14.57;7.15;;;28.50;36.40;;;;;;5106581;28;20036;-83
2022/06/15 12:37:01;;;;;;;19.58;7.50;;;28.60;35.20;;;;;;5107810;28;20472;-82
2022/06/15 12:39:41;;;;;;;13.60;6.70;;;28.50;35.70;;;;;;5112131;28;20023;-83
2022/06/15 12:42:14;;;;;;;11.60;7.07;;;28.20;36.30;;;;;;5110401;28;20028;-81
2022/06/15 12:44:55;;;;;;;12.45;5.78;;;27.80;36.10;;;;;;5101686;27;20019;-82
2022/06/15 12:47:23;;;;;;;16.02;7.90;;;27.60;36.80;;;;;;5107291;28;20040;-82
2022/06/15 12:50:29;;;;;;;12.93;6.78;;;28.00;35.00;;;;;;5107615;28;20024;-82
2022/06/15 12:52:58;;;;;;;14.57;6.53;;;28.40;35.60;;;;;;5107397;28;20068;-82
2022/06/15 12:55:33;;;;;;;14.80;7.07;;;28.60;33.60;;;;;;5105780;28;20020;-83
2022/06/15 12:57:58;;;;;;;12.73;7.25;;;28.40;33.80;;;;;;5105327;28;20088;-82
2022/06/15 13:00:36;;;;;;;17.55;6.70;;;28.40;34.70;;;;;;5102699;28;20040;-77
2022/06/15 13:03:24;;;;;;;16.25;6.75;;;28.20;35.10;;;;;;5107285;28;20028;-79
2022/06/15 13:05:49;;;;;;;11.88;5.50;;;28.30;34.60;;;;;;5108310;28;20039;-80
2022/06/15 13:08:31;;;;;;;9.88;5.55;;;28.60;34.20;;;;;;5108575;28;20133;-76
2022/06/15 13:11:11;;;;;;;13.75;7.22;;;29.00;34.80;;;;;;5107863;28;20055;-81
2022/06/15 13:14:16;;;;;;;12.90;7.00;;;28.70;32.60;;;;;;5110477;28;20046;-76
2022/06/15 13:16:55;;;;;;;12.52;7.97;;;28.20;34.30;;;;;;5090704;28;20016;-78
2022/06/15 13:19:40;;;;;;;14.95;7.95;;;27.60;36.40;;;;;;5087193;28;20082;-78
2022/06/15 13:22:12;;;;;;;13.48;9.32;;;27.60;37.00;;;;;;5105305;28;20040;-78
2022/06/15 13:25:07;;;;;;;16.67;8.68;;;27.50;37.30;;;;;;5105480;28;20025;-79